Time;durP1;ratioP1;P1;durP2;ratioP2;P2;SDS_P1;SDS_P2;PMS_P1;PMS_P2;Temp;Humidity;BMP_temperature;BMP_pressure;BME280_temperature;BME280_humidity;BME280_pressure;Samples;Min_cycle;Max_cycle;Signal;HPM_P1;HPM_P2
2022/10/08 00:01:17;;;;;;;4.40;4.10;;;15.10;78.10;15.20;96799.00;;;;5054189;28;20386;-81
2022/10/08 00:03:49;;;;;;;5.30;4.53;;;15.10;78.10;15.20;96804.00;;;;5049049;28;20994;-81
2022/10/08 00:06:18;;;;;;;5.50;4.40;;;15.10;78.10;15.20;96803.00;;;;5053877;28;20549;-81
2022/10/08 00:08:51;;;;;;;4.60;4.20;;;15.00;78.10;15.20;96801.00;;;;5038971;28;20219;-81
2022/10/08 00:11:22;;;;;;;4.43;4.03;;;15.00;78.00;15.20;96796.00;;;;5056675;28;20248;-81
2022/10/08 00:13:51;;;;;;;8.57;4.23;;;15.00;78.10;15.20;96792.00;;;;5056617;28;20638;-81
2022/10/08 00:16:22;;;;;;;4.20;3.90;;;15.00;78.00;15.20;96799.00;;;;5055759;28;20225;-81
2022/10/08 00:18:53;;;;;;;4.37;4.07;;;15.00;78.00;15.20;96800.00;;;;5052873;28;20278;-81
2022/10/08 00:21:24;;;;;;;4.57;4.17;;;15.00;78.10;15.20;96799.00;;;;5055811;28;20209;-81
2022/10/08 00:23:52;;;;;;;4.60;4.30;;;15.00;78.10;15.20;96800.00;;;;5055777;28;20648;-81
2022/10/08 00:26:24;;;;;;;5.87;4.83;;;15.00;78.10;15.20;96790.00;;;;5048285;28;20222;-81
2022/10/08 00:28:53;;;;;;;7.50;4.73;;;15.00;78.10;15.20;96789.00;;;;5057612;28;20201;-81
2022/10/08 00:31:23;;;;;;;7.20;4.73;;;15.00;78.00;15.20;96789.00;;;;5054921;28;20224;-81
2022/10/08 00:33:55;;;;;;;4.80;4.40;;;15.00;78.00;15.10;96788.00;;;;5055129;28;20289;-81
2022/10/08 00:36:25;;;;;;;4.37;4.07;;;15.00;77.90;15.10;96786.00;;;;5055501;28;20284;-81
2022/10/08 00:38:56;;;;;;;4.50;4.13;;;14.90;77.90;15.10;96779.00;;;;5053834;28;20216;-81
2022/10/08 00:41:26;;;;;;;5.63;4.30;;;14.90;78.00;15.10;96784.00;;;;5056230;28;20240;-81
2022/10/08 00:43:56;;;;;;;4.50;4.10;;;14.90;78.10;15.10;96780.00;;;;5058932;28;20227;-81
2022/10/08 00:46:28;;;;;;;6.47;4.40;;;14.90;78.20;15.10;96775.00;;;;5055754;28;20228;-81
2022/10/08 00:49:04;;;;;;;8.13;4.70;;;14.90;78.20;15.10;96775.00;;;;5048856;28;20197;-81
2022/10/08 00:51:33;;;;;;;11.10;4.20;;;14.90;78.10;15.10;96779.00;;;;5037707;28;20248;-81
2022/10/08 00:54:02;;;;;;;11.00;4.00;;;14.90;78.20;15.10;96775.00;;;;5057957;28;20661;-81
2022/10/08 00:56:34;;;;;;;5.27;3.90;;;14.90;78.10;15.00;96770.00;;;;5055114;28;20661;-81
2022/10/08 00:59:01;;;;;;;7.10;4.00;;;14.90;78.00;15.00;96776.00;;;;5051660;28;20229;-81
2022/10/08 01:01:29;;;;;;;8.47;4.40;;;14.90;77.90;15.00;96767.00;;;;5051461;28;20208;-81
2022/10/08 01:04:01;;;;;;;5.43;4.40;;;14.90;77.90;15.00;96773.00;;;;5042483;28;20193;-81
2022/10/08 01:06:31;;;;;;;16.50;4.73;;;14.80;77.90;14.90;96766.00;;;;5066093;22;20248;-83
2022/10/08 01:09:07;;;;;;;6.60;4.50;;;14.80;77.90;14.90;96757.00;;;;5050798;28;20193;-85
2022/10/08 01:11:47;;;;;;;7.13;4.20;;;14.80;77.90;14.90;96756.00;;;;5050417;28;20256;-85
2022/10/08 01:14:33;;;;;;;5.07;3.67;;;14.80;77.80;14.80;96754.00;;;;5032985;28;20211;-85
2022/10/08 01:17:09;;;;;;;4.47;4.10;;;14.70;77.60;14.80;96745.00;;;;5020234;28;20304;-86
2022/10/08 01:20:09;;;;;;;3.97;3.77;;;14.70;77.70;14.80;96754.00;;;;5028877;28;20185;-86
2022/10/08 01:22:59;;;;;;;4.07;3.80;;;14.70;77.80;14.80;96754.00;;;;5022625;28;20224;-85
2022/10/08 01:25:40;;;;;;;4.57;3.47;;;14.70;77.90;14.70;96749.00;;;;5040826;28;20189;-85
2022/10/08 01:28:20;;;;;;;6.17;3.97;;;14.70;77.80;14.70;96755.00;;;;5023721;28;20194;-86
2022/10/08 01:30:57;;;;;;;6.67;3.93;;;14.60;77.80;14.70;96745.00;;;;5042024;28;20216;-84
2022/10/08 01:33:33;;;;;;;3.87;3.57;;;14.60;77.80;14.70;96739.00;;;;5033504;28;20243;-86
2022/10/08 01:36:05;;;;;;;4.00;3.70;;;14.60;77.90;14.70;96741.00;;;;5035976;28;20723;-86
2022/10/08 01:38:37;;;;;;;4.03;3.73;;;14.60;78.00;14.70;96745.00;;;;5023944;28;20543;-86
2022/10/08 01:41:09;;;;;;;4.57;3.70;;;14.60;78.10;14.70;96743.00;;;;5042498;28;20211;-86
2022/10/08 01:43:44;;;;;;;8.47;3.73;;;14.50;78.00;14.70;96735.00;;;;5047319;28;20224;-86
2022/10/08 01:46:20;;;;;;;4.50;3.97;;;14.50;78.00;14.70;96743.00;;;;5032137;28;20228;-85
2022/10/08 01:48:53;;;;;;;4.03;3.73;;;14.50;78.00;14.60;96736.00;;;;5029239;28;20657;-86
2022/10/08 01:51:26;;;;;;;4.10;3.73;;;14.50;77.90;14.60;96731.00;;;;5039390;28;20214;-86
2022/10/08 01:53:54;;;;;;;4.20;3.83;;;14.50;77.90;14.60;96724.00;;;;5032008;28;20198;-86
2022/10/08 01:56:27;;;;;;;4.57;4.20;;;14.50;77.90;14.60;96725.00;;;;5040126;28;20241;-87
2022/10/08 01:59:03;;;;;;;5.10;4.20;;;14.50;78.00;14.60;96735.00;;;;5042752;28;20177;-86
2022/10/08 02:01:37;;;;;;;4.47;4.17;;;14.50;78.00;14.60;96727.00;;;;5032508;28;20220;-85
2022/10/08 02:06:55;;;;;;;5.27;4.77;;;14.40;78.00;14.50;96735.00;;;;5046359;28;20722;-86
2022/10/08 02:09:25;;;;;;;4.90;4.50;;;14.40;77.90;14.50;96730.00;;;;5041628;28;20194;-85
2022/10/08 02:11:53;;;;;;;4.27;3.97;;;14.40;77.90;14.50;96726.00;;;;5032292;28;20292;-84
2022/10/08 02:14:25;;;;;;;4.30;4.00;;;14.40;77.80;14.50;96728.00;;;;5032078;28;20229;-85
2022/10/08 02:17:03;;;;;;;4.83;4.43;;;14.40;77.80;14.50;96728.00;;;;5035495;28;20292;-85
2022/10/08 02:19:44;;;;;;;4.27;3.97;;;14.40;77.80;14.50;96722.00;;;;5029421;28;20453;-85
2022/10/08 02:22:18;;;;;;;7.50;4.20;;;14.40;77.90;14.50;96718.00;;;;5028044;28;20419;-85
2022/10/08 02:24:52;;;;;;;5.57;4.57;;;14.30;77.70;14.50;96711.00;;;;5038476;28;20197;-85
2022/10/08 02:27:28;;;;;;;4.53;4.13;;;14.30;77.70;14.50;96709.00;;;;5034109;28;20641;-85
2022/10/08 02:30:06;;;;;;;4.93;3.87;;;14.30;77.70;14.50;96722.00;;;;5034979;28;20188;-84
2022/10/08 02:32:38;;;;;;;6.13;4.23;;;14.30;77.60;14.50;96715.00;;;;5030304;28;20275;-85
2022/10/08 02:35:16;;;;;;;4.47;4.17;;;14.30;77.70;14.50;96713.00;;;;5034745;28;20764;-85
2022/10/08 02:37:53;;;;;;;3.90;3.70;;;14.30;77.70;14.40;96713.00;;;;5025215;28;20224;-84
2022/10/08 02:40:22;;;;;;;4.93;4.30;;;14.30;77.80;14.40;96723.00;;;;5050509;28;20204;-85
2022/10/08 02:42:56;;;;;;;5.10;4.13;;;14.30;77.80;14.40;96720.00;;;;5039543;28;20245;-85
2022/10/08 02:45:29;;;;;;;10.67;4.20;;;14.30;77.70;14.40;96716.00;;;;5032069;28;20688;-84
2022/10/08 02:48:05;;;;;;;11.30;4.50;;;14.30;77.80;14.40;96715.00;;;;5028092;28;20221;-86
2022/10/08 02:50:39;;;;;;;9.07;3.90;;;14.30;77.80;14.40;96711.00;;;;5040769;28;20231;-85
2022/10/08 02:53:06;;;;;;;4.30;3.90;;;14.20;77.70;14.30;96702.00;;;;5047321;28;20248;-85
2022/10/08 02:55:44;;;;;;;4.43;3.83;;;14.20;77.80;14.30;96707.00;;;;5033188;28;20289;-84
2022/10/08 02:58:13;;;;;;;5.00;4.60;;;14.20;77.80;14.30;96707.00;;;;5032504;28;20244;-85
2022/10/08 03:00:52;;;;;;;4.87;4.47;;;14.20;77.90;14.30;96717.00;;;;5036061;28;20192;-85
2022/10/08 03:03:29;;;;;;;4.23;3.93;;;14.20;78.00;14.30;96715.00;;;;5047281;28;20284;-86
2022/10/08 03:05:59;;;;;;;5.53;3.93;;;14.20;78.10;14.30;96711.00;;;;5021907;28;20297;-84
2022/10/08 03:08:27;;;;;;;4.43;4.13;;;14.20;78.10;14.30;96716.00;;;;5047132;28;20209;-84
2022/10/08 03:10:54;;;;;;;4.50;4.20;;;14.20;78.10;14.30;96715.00;;;;5045340;28;20267;-85
2022/10/08 03:13:24;;;;;;;4.33;3.97;;;14.20;78.80;14.30;96709.00;;;;5042376;28;20196;-85
2022/10/08 03:15:54;;;;;;;5.00;3.93;;;14.20;78.20;14.30;96716.00;;;;5024094;28;20208;-85
2022/10/08 03:18:24;;;;;;;4.07;3.87;;;14.20;78.20;14.30;96719.00;;;;5032875;28;20247;-85
2022/10/08 03:20:54;;;;;;;4.50;4.10;;;14.20;78.30;14.30;96724.00;;;;5041910;28;20275;-84
2022/10/08 03:23:21;;;;;;;5.13;4.40;;;14.20;78.30;14.30;96714.00;;;;5042733;28;20246;-85
2022/10/08 03:25:49;;;;;;;5.47;4.20;;;14.20;78.30;14.30;96717.00;;;;5026908;28;20618;-85
2022/10/08 03:28:16;;;;;;;5.77;4.13;;;14.20;78.20;14.30;96721.00;;;;5030911;28;20618;-84
2022/10/08 03:30:43;;;;;;;4.10;3.80;;;14.20;78.40;14.30;96716.00;;;;5038615;28;20447;-83
2022/10/08 03:33:12;;;;;;;5.10;3.70;;;14.20;78.30;14.30;96711.00;;;;5026732;28;20252;-85
2022/10/08 03:35:45;;;;;;;6.43;3.90;;;14.20;78.30;14.30;96712.00;;;;5039190;28;20216;-84
2022/10/08 03:38:14;;;;;;;4.10;3.70;;;14.20;78.30;14.30;96707.00;;;;5031337;28;20211;-85
2022/10/08 03:40:41;;;;;;;4.10;3.83;;;14.10;78.30;14.30;96709.00;;;;5030809;28;20231;-84
2022/10/08 03:43:11;;;;;;;3.80;3.60;;;14.20;78.40;14.30;96703.00;;;;5024284;28;20257;-85
2022/10/08 03:45:38;;;;;;;4.10;3.73;;;14.20;78.40;14.30;96710.00;;;;5034188;28;20217;-85
2022/10/08 03:48:05;;;;;;;4.03;3.73;;;14.20;78.40;14.30;96706.00;;;;5023538;28;20334;-85
2022/10/08 03:50:34;;;;;;;3.93;3.73;;;14.20;78.40;14.30;96707.00;;;;5028243;28;20648;-85
2022/10/08 03:53:01;;;;;;;3.57;3.37;;;14.20;78.40;14.30;96717.00;;;;5028242;28;20609;-85
2022/10/08 03:55:28;;;;;;;3.90;3.70;;;14.20;78.30;14.30;96713.00;;;;5032487;28;20256;-85
2022/10/08 03:57:55;;;;;;;4.43;4.13;;;14.20;78.30;14.30;96716.00;;;;5039096;28;20256;-84
2022/10/08 04:00:23;;;;;;;4.47;4.17;;;14.20;78.30;14.30;96711.00;;;;5032023;28;20193;-84
2022/10/08 04:02:50;;;;;;;4.00;3.70;;;14.20;78.50;14.30;96712.00;;;;5039973;28;20637;-84
2022/10/08 04:05:18;;;;;;;4.50;4.20;;;14.20;78.60;14.40;96715.00;;;;5035968;28;20627;-84
2022/10/08 04:07:46;;;;;;;4.30;4.00;;;14.20;78.60;14.40;96718.00;;;;5035067;28;20204;-85
2022/10/08 04:10:14;;;;;;;4.47;4.13;;;14.20;78.60;14.40;96716.00;;;;5040610;28;20220;-84
2022/10/08 04:12:41;;;;;;;4.30;4.00;;;14.20;78.60;14.40;96709.00;;;;5044219;28;20213;-84
2022/10/08 04:15:09;;;;;;;3.70;3.50;;;14.20;78.70;14.40;96713.00;;;;5033826;28;20204;-84
2022/10/08 04:17:36;;;;;;;3.53;3.33;;;14.20;78.80;14.40;96718.00;;;;5051583;28;20247;-84
2022/10/08 04:20:04;;;;;;;3.77;3.57;;;14.20;78.80;14.50;96714.00;;;;5039681;28;20200;-85
2022/10/08 04:22:33;;;;;;;3.93;3.63;;;14.30;78.80;14.50;96699.00;;;;5044381;28;20217;-85
2022/10/08 04:25:02;;;;;;;4.10;3.80;;;14.30;78.80;14.50;96700.00;;;;5052955;28;20232;-84
2022/10/08 04:27:29;;;;;;;4.33;4.03;;;14.30;78.70;14.50;96711.00;;;;5041869;28;20677;-85
2022/10/08 04:29:56;;;;;;;4.80;4.50;;;14.30;78.60;14.50;96720.00;;;;5033782;28;20221;-85
2022/10/08 04:32:23;;;;;;;4.70;4.30;;;14.30;78.50;14.50;96722.00;;;;5021814;28;20304;-85
2022/10/08 04:34:50;;;;;;;4.43;4.13;;;14.30;78.40;14.50;96726.00;;;;5014298;28;20659;-85
2022/10/08 04:37:19;;;;;;;3.73;3.53;;;14.30;78.30;14.50;96728.00;;;;5020165;28;20308;-85
2022/10/08 04:39:46;;;;;;;3.80;3.50;;;14.30;78.40;14.50;96733.00;;;;5032406;28;20564;-85
2022/10/08 04:42:14;;;;;;;4.60;4.20;;;14.30;78.20;14.50;96729.00;;;;5033355;28;20209;-84
2022/10/08 04:44:42;;;;;;;4.07;3.87;;;14.40;78.20;14.50;96732.00;;;;5038747;28;20197;-84
2022/10/08 04:47:09;;;;;;;4.03;3.83;;;14.30;78.20;14.50;96727.00;;;;5046590;28;20247;-84
2022/10/08 04:49:36;;;;;;;4.23;3.97;;;14.40;78.30;14.50;96720.00;;;;5033990;28;20197;-85
2022/10/08 04:52:05;;;;;;;4.23;4.03;;;14.40;78.40;14.50;96728.00;;;;5033202;28;20214;-84
2022/10/08 04:54:33;;;;;;;4.90;4.60;;;14.40;78.40;14.60;96730.00;;;;5033436;28;20629;-84
2022/10/08 04:57:00;;;;;;;4.20;3.90;;;14.40;78.40;14.60;96729.00;;;;5034729;28;20247;-84
2022/10/08 04:59:28;;;;;;;4.40;4.13;;;14.40;78.30;14.60;96729.00;;;;5033149;28;20292;-84
2022/10/08 05:01:56;;;;;;;4.33;4.03;;;14.40;78.40;14.60;96729.00;;;;5032635;28;20246;-85
2022/10/08 05:04:24;;;;;;;4.07;3.77;;;14.40;78.50;14.60;96743.00;;;;5022672;28;20505;-84
2022/10/08 05:06:51;;;;;;;4.40;4.10;;;14.40;78.60;14.70;96731.00;;;;5026294;28;20197;-85
2022/10/08 05:09:18;;;;;;;4.23;3.90;;;14.40;79.20;14.70;96727.00;;;;5033626;28;20224;-85
2022/10/08 05:11:45;;;;;;;4.27;3.97;;;14.40;78.40;14.70;96736.00;;;;5032187;28;20224;-84
2022/10/08 05:14:12;;;;;;;4.50;4.10;;;14.50;78.40;14.70;96739.00;;;;5033493;28;20201;-85
2022/10/08 05:16:41;;;;;;;4.10;3.80;;;14.50;78.40;14.70;96739.00;;;;5033437;28;20372;-85
2022/10/08 05:19:08;;;;;;;3.70;3.43;;;14.50;78.30;14.70;96739.00;;;;5032697;28;20193;-84
2022/10/08 05:21:36;;;;;;;3.57;3.37;;;14.50;78.20;14.70;96736.00;;;;5041184;28;20573;-84
2022/10/08 05:24:07;;;;;;;4.17;3.87;;;14.50;78.00;14.70;96741.00;;;;5040948;28;20232;-84
2022/10/08 05:26:37;;;;;;;3.83;3.53;;;14.50;77.90;14.70;96750.00;;;;5042801;28;20435;-85
2022/10/08 05:29:05;;;;;;;4.10;3.90;;;14.50;77.90;14.70;96740.00;;;;5046023;28;20232;-85
2022/10/08 05:31:33;;;;;;;3.93;3.63;;;14.50;77.90;14.70;96744.00;;;;5035541;28;20268;-85
2022/10/08 05:34:01;;;;;;;4.03;3.83;;;14.50;77.90;14.70;96749.00;;;;5041090;28;20201;-84
2022/10/08 05:36:32;;;;;;;4.30;4.00;;;14.50;78.00;14.70;96749.00;;;;5033140;28;20706;-84
2022/10/08 05:39:02;;;;;;;3.63;3.40;;;14.50;78.10;14.70;96751.00;;;;5034991;28;20229;-85
2022/10/08 05:41:32;;;;;;;4.27;3.97;;;14.50;78.00;14.70;96746.00;;;;5033481;28;20244;-84
2022/10/08 05:44:00;;;;;;;4.20;4.00;;;14.50;77.90;14.70;96752.00;;;;5047396;28;20193;-85
2022/10/08 05:46:31;;;;;;;3.70;3.50;;;14.50;77.90;14.70;96760.00;;;;5048714;28;20232;-84
2022/10/08 05:49:03;;;;;;;3.77;3.50;;;14.50;77.90;14.70;96757.00;;;;5034438;28;20232;-84
2022/10/08 05:51:31;;;;;;;3.93;3.70;;;14.50;78.00;14.70;96754.00;;;;5046704;28;20209;-84
2022/10/08 05:54:00;;;;;;;3.63;3.43;;;14.50;78.00;14.80;96758.00;;;;5047947;28;20246;-84
2022/10/08 05:56:28;;;;;;;3.80;3.60;;;14.50;78.00;14.70;96764.00;;;;5055400;28;20560;-84
2022/10/08 05:58:55;;;;;;;4.20;3.87;;;14.50;78.00;14.80;96761.00;;;;5037940;28;20249;-84
2022/10/08 06:01:25;;;;;;;3.67;3.47;;;14.60;78.10;14.80;96763.00;;;;5051265;28;20303;-84
2022/10/08 06:03:55;;;;;;;3.33;3.13;;;14.60;78.00;14.80;96776.00;;;;5037600;28;20197;-84
2022/10/08 06:06:24;;;;;;;3.37;3.17;;;14.60;78.10;14.80;96771.00;;;;5035867;28;20198;-84
2022/10/08 06:08:54;;;;;;;3.47;3.27;;;14.60;78.10;14.80;96771.00;;;;5045738;28;20220;-84
2022/10/08 06:11:22;;;;;;;3.50;3.27;;;14.60;78.00;14.80;96771.00;;;;5023510;28;20249;-86
2022/10/08 06:13:53;;;;;;;3.27;3.13;;;14.60;78.00;14.80;96775.00;;;;5016191;28;20635;-86
2022/10/08 06:16:21;;;;;;;3.67;3.37;;;14.60;78.90;14.90;96770.00;;;;5032301;28;20284;-86
2022/10/08 06:18:49;;;;;;;3.50;3.30;;;14.60;78.20;14.90;96775.00;;;;5025968;28;20358;-86
2022/10/08 06:21:19;;;;;;;3.40;3.20;;;14.60;78.20;14.90;96781.00;;;;5036886;28;20221;-87
2022/10/08 06:23:52;;;;;;;3.37;3.17;;;14.60;78.20;15.00;96789.00;;;;5032660;28;20229;-86
2022/10/08 06:26:21;;;;;;;3.43;3.13;;;14.60;78.20;15.00;96788.00;;;;5027602;28;20256;-87
2022/10/08 06:28:49;;;;;;;3.27;3.07;;;14.60;78.30;15.00;96783.00;;;;5048177;28;20194;-86
2022/10/08 06:31:17;;;;;;;3.37;3.17;;;14.70;78.50;15.00;96787.00;;;;5031204;28;20264;-86
2022/10/08 06:33:45;;;;;;;3.47;3.17;;;14.70;78.50;15.00;96783.00;;;;5025240;28;20201;-88
2022/10/08 06:36:16;;;;;;;3.40;3.20;;;14.70;78.60;15.10;96789.00;;;;5027390;28;20225;-86
2022/10/08 06:38:48;;;;;;;3.30;3.10;;;14.70;78.60;15.10;96800.00;;;;5030846;28;20225;-86
2022/10/08 06:41:17;;;;;;;3.30;3.10;;;14.70;78.70;15.20;96792.00;;;;5030456;28;20228;-86
2022/10/08 06:43:44;;;;;;;3.77;3.57;;;14.80;78.80;15.20;96800.00;;;;5037531;28;20201;-86
2022/10/08 06:46:12;;;;;;;4.13;3.83;;;14.80;78.90;15.20;96801.00;;;;5028698;28;20233;-87
2022/10/08 06:48:39;;;;;;;3.37;3.07;;;14.80;79.00;15.30;96798.00;;;;5018065;28;20285;-87
2022/10/08 06:51:11;;;;;;;3.17;2.97;;;14.80;79.10;15.30;96792.00;;;;5026939;28;20266;-86
2022/10/08 06:53:39;;;;;;;3.47;3.27;;;14.90;79.20;15.40;96796.00;;;;5032144;28;20289;-86
2022/10/08 06:56:13;;;;;;;4.90;4.50;;;14.90;80.00;15.40;96799.00;;;;5029025;28;20256;-86
2022/10/08 06:58:43;;;;;;;4.60;4.30;;;15.00;79.40;15.50;96810.00;;;;5021132;28;20249;-87
2022/10/08 07:01:14;;;;;;;4.03;3.83;;;15.00;79.40;15.60;96810.00;;;;5023487;28;20670;-87
2022/10/08 07:03:42;;;;;;;4.50;4.20;;;15.10;79.60;15.60;96818.00;;;;5031787;28;20197;-88
2022/10/08 07:06:11;;;;;;;4.53;4.23;;;15.20;79.70;15.70;96812.00;;;;5031715;28;20722;-87
2022/10/08 07:08:41;;;;;;;5.00;4.70;;;15.20;79.80;15.80;96819.00;;;;5076693;23;20322;-87
2022/10/08 07:11:12;;;;;;;4.47;4.17;;;15.30;80.60;15.90;96814.00;;;;5072418;28;20220;-87
2022/10/08 07:13:42;;;;;;;4.47;4.13;;;15.30;80.00;16.00;96815.00;;;;5059830;28;20231;-87
2022/10/08 07:16:12;;;;;;;4.57;4.27;;;15.40;80.00;16.10;96822.00;;;;5057506;28;20203;-87
2022/10/08 07:18:40;;;;;;;4.97;4.57;;;15.50;80.20;16.20;96824.00;;;;5053495;28;20217;-87
2022/10/08 07:21:11;;;;;;;4.83;4.53;;;15.60;80.30;16.30;96819.00;;;;5062294;28;20211;-88
2022/10/08 07:23:39;;;;;;;4.63;4.33;;;15.70;80.40;16.40;96830.00;;;;5070277;28;20224;-91
2022/10/08 07:26:13;;;;;;;4.53;4.13;;;15.80;80.40;16.50;96827.00;;;;5072073;28;20195;-88
2022/10/08 07:28:48;;;;;;;5.20;4.70;;;15.90;80.50;16.60;96834.00;;;;5053600;28;20242;-88
2022/10/08 07:31:18;;;;;;;4.10;3.80;;;15.40;80.20;16.70;96843.00;;;;5052712;28;20248;-87
2022/10/08 07:33:46;;;;;;;3.70;3.50;;;16.10;80.60;16.80;96849.00;;;;5067897;28;20228;-88
2022/10/08 07:36:17;;;;;;;3.83;3.53;;;16.20;80.60;16.90;96853.00;;;;5072753;28;20251;-89
2022/10/08 07:38:45;;;;;;;3.80;3.50;;;16.30;80.60;17.00;96853.00;;;;5076357;28;20314;-89
2022/10/08 07:41:14;;;;;;;4.30;4.00;;;16.30;80.40;17.00;96853.00;;;;5069440;28;20230;-88
2022/10/08 07:43:44;;;;;;;4.03;3.80;;;16.40;80.30;17.10;96849.00;;;;5064613;28;20215;-88
2022/10/08 07:46:17;;;;;;;3.97;3.67;;;16.50;80.40;17.20;96858.00;;;;5063141;28;20283;-88
2022/10/08 07:48:44;;;;;;;4.20;3.90;;;16.60;80.20;17.30;96861.00;;;;5060309;28;21326;-88
2022/10/08 07:51:18;;;;;;;4.67;3.87;;;16.70;80.20;17.40;96858.00;;;;5058053;28;20621;-88
2022/10/08 07:53:49;;;;;;;4.00;3.73;;;16.80;80.20;17.50;96867.00;;;;5062302;28;20196;-88
2022/10/08 07:56:28;;;;;;;4.23;3.93;;;16.80;80.20;17.50;96867.00;;;;5062576;28;20575;-88
2022/10/08 07:59:01;;;;;;;3.80;3.50;;;16.90;80.10;17.60;96872.00;;;;5060865;28;20262;-88
2022/10/08 08:01:33;;;;;;;3.63;3.43;;;17.00;80.10;17.70;96871.00;;;;5059957;28;20265;-88
2022/10/08 08:04:06;;;;;;;3.83;3.53;;;17.10;80.00;17.80;96871.00;;;;5057138;28;20200;-88
2022/10/08 08:06:39;;;;;;;3.90;3.63;;;17.20;80.10;17.90;96873.00;;;;5066338;28;20238;-87
2022/10/08 08:09:06;;;;;;;4.17;3.87;;;17.20;80.10;18.00;96877.00;;;;5059040;28;20610;-87
2022/10/08 08:11:34;;;;;;;4.10;3.80;;;17.30;80.20;18.00;96871.00;;;;5059036;28;20350;-87
2022/10/08 08:14:05;;;;;;;4.33;3.93;;;17.40;80.20;18.10;96876.00;;;;5058645;28;20419;-87
2022/10/08 08:16:41;;;;;;;4.20;3.90;;;17.50;80.20;18.20;96875.00;;;;5059513;28;20707;-87
2022/10/08 08:19:08;;;;;;;4.00;3.70;;;17.50;80.00;18.20;96877.00;;;;5062595;28;20220;-88
2022/10/08 08:21:40;;;;;;;4.83;4.33;;;17.60;80.00;18.30;96884.00;;;;5060655;28;20217;-87
2022/10/08 08:24:11;;;;;;;4.03;3.73;;;17.70;80.10;18.30;96878.00;;;;5062608;28;20843;-87
2022/10/08 08:26:41;;;;;;;5.57;4.00;;;17.70;80.10;18.40;96874.00;;;;5063621;28;20629;-87
2022/10/08 08:29:13;;;;;;;3.87;3.67;;;17.80;80.00;18.50;96876.00;;;;5063856;28;20196;-87
2022/10/08 08:31:43;;;;;;;4.17;3.77;;;17.90;80.00;18.50;96876.00;;;;5064800;28;20216;-87
2022/10/08 08:34:13;;;;;;;4.33;4.00;;;17.90;80.00;18.60;96872.00;;;;5055877;28;20673;-87
2022/10/08 08:36:43;;;;;;;4.87;4.47;;;18.00;79.90;18.70;96871.00;;;;5056445;28;20200;-87
2022/10/08 08:39:18;;;;;;;4.73;4.30;;;18.10;79.90;18.70;96866.00;;;;5061755;28;20265;-87
2022/10/08 08:42:21;;;;;;;4.33;4.03;;;18.10;80.00;18.80;96881.00;;;;5070868;28;20280;-88
2022/10/08 08:45:02;;;;;;;4.33;3.87;;;18.20;79.90;18.90;96871.00;;;;5056303;28;20222;-87
2022/10/08 08:47:36;;;;;;;4.10;3.80;;;18.30;79.90;18.90;96871.00;;;;5063483;28;20193;-88
2022/10/08 08:50:08;;;;;;;3.93;3.63;;;18.30;79.70;19.00;96872.00;;;;5070284;28;20283;-88
2022/10/08 08:52:42;;;;;;;4.47;4.03;;;18.40;79.60;19.00;96873.00;;;;5062924;28;20649;-87
2022/10/08 08:55:16;;;;;;;4.17;3.90;;;18.40;79.50;19.00;96880.00;;;;5070220;28;20199;-87
2022/10/08 08:57:54;;;;;;;4.00;3.70;;;18.50;79.50;19.10;96877.00;;;;5063973;28;20227;-88
2022/10/08 09:00:32;;;;;;;4.00;3.80;;;18.50;79.50;19.20;96879.00;;;;5068797;28;20191;-87
2022/10/08 09:03:05;;;;;;;4.20;3.80;;;18.60;79.60;19.20;96878.00;;;;5067452;28;20239;-87
2022/10/08 09:05:44;;;;;;;3.90;3.60;;;18.60;79.50;19.30;96886.00;;;;5064817;28;20224;-88
2022/10/08 09:08:19;;;;;;;4.10;3.80;;;18.70;79.30;19.40;96896.00;;;;5052424;28;20290;-88
2022/10/08 09:10:54;;;;;;;3.90;3.60;;;18.70;79.40;19.40;96886.00;;;;5069243;28;20195;-88
2022/10/08 09:13:31;;;;;;;4.23;3.90;;;18.80;79.40;19.50;96888.00;;;;5068354;28;20219;-84
2022/10/08 09:16:03;;;;;;;4.63;4.17;;;18.90;79.40;19.50;96886.00;;;;5068052;28;20204;-83
2022/10/08 09:18:32;;;;;;;4.20;3.90;;;18.90;79.40;19.60;96898.00;;;;5054289;28;20303;-82
2022/10/08 09:21:04;;;;;;;4.07;3.77;;;19.00;79.40;19.60;96892.00;;;;5067001;28;20193;-82
2022/10/08 09:23:34;;;;;;;4.07;3.77;;;19.00;79.40;19.70;96889.00;;;;5056268;28;20279;-82
2022/10/08 09:26:13;;;;;;;4.63;4.30;;;19.10;79.60;19.80;96898.00;;;;5066690;28;20617;-83
2022/10/08 09:28:44;;;;;;;4.27;3.97;;;19.20;79.70;19.80;96895.00;;;;5056911;28;20398;-83
2022/10/08 09:31:27;;;;;;;4.40;4.10;;;19.20;79.70;19.90;96896.00;;;;5065646;28;20197;-83
2022/10/08 09:34:06;;;;;;;4.07;3.63;;;19.30;79.70;20.00;96899.00;;;;5066426;28;20640;-86
2022/10/08 09:36:38;;;;;;;4.70;4.30;;;19.30;79.50;20.10;96899.00;;;;5069559;28;20614;-86
2022/10/08 09:39:16;;;;;;;4.47;4.07;;;19.40;79.40;20.10;96902.00;;;;5069351;28;20239;-86
2022/10/08 09:41:51;;;;;;;5.33;4.10;;;19.50;79.50;20.20;96904.00;;;;5064704;28;20216;-86
2022/10/08 09:44:23;;;;;;;4.23;3.90;;;19.50;79.30;20.20;96906.00;;;;5055866;28;20199;-85
2022/10/08 09:47:10;;;;;;;4.07;3.77;;;19.60;79.10;20.30;96901.00;;;;5070568;28;20192;-85
2022/10/08 09:49:38;;;;;;;4.30;3.83;;;19.70;79.10;20.40;96908.00;;;;5056976;28;20278;-86
2022/10/08 09:52:15;;;;;;;5.00;3.90;;;19.70;78.90;20.40;96909.00;;;;5075187;28;20287;-86
2022/10/08 09:54:51;;;;;;;3.83;3.53;;;19.80;78.80;20.40;96904.00;;;;5060137;28;20200;-86
2022/10/08 09:57:24;;;;;;;5.27;4.43;;;19.80;79.00;20.50;96897.00;;;;5055250;28;20205;-86
2022/10/08 10:00:01;;;;;;;4.13;3.77;;;19.90;78.50;20.50;96914.00;;;;5063902;28;20308;-86
2022/10/08 10:02:33;;;;;;;4.03;3.73;;;19.90;78.40;20.50;96905.00;;;;5064077;28;20276;-85
2022/10/08 10:05:05;;;;;;;4.60;4.20;;;20.00;78.30;20.60;96906.00;;;;5063327;28;20313;-85
2022/10/08 10:07:44;;;;;;;5.33;3.63;;;20.00;78.30;20.60;96908.00;;;;5069305;28;20212;-86
2022/10/08 10:10:21;;;;;;;4.73;4.23;;;20.00;77.60;20.60;96903.00;;;;5060454;28;20270;-85
2022/10/08 10:13:01;;;;;;;7.13;4.07;;;20.10;77.90;20.70;96899.00;;;;5070272;28;20217;-85
2022/10/08 10:15:34;;;;;;;7.70;4.17;;;20.10;77.90;20.70;96896.00;;;;5055867;28;20639;-85
2022/10/08 10:18:10;;;;;;;4.63;4.23;;;20.10;77.70;20.70;96893.00;;;;5061492;28;20220;-85
2022/10/08 10:20:46;;;;;;;5.07;4.40;;;20.20;77.80;20.80;96891.00;;;;5071250;28;20219;-85
2022/10/08 10:23:19;;;;;;;4.70;4.20;;;20.20;77.70;20.80;96888.00;;;;5072530;28;20248;-86
2022/10/08 10:25:52;;;;;;;4.80;4.33;;;20.20;77.70;20.90;96889.00;;;;5073444;28;20238;-86
2022/10/08 10:28:34;;;;;;;6.33;4.63;;;20.30;77.40;20.90;96893.00;;;;5071508;28;20377;-86
2022/10/08 10:31:16;;;;;;;4.40;4.00;;;20.30;77.20;20.90;96888.00;;;;5062441;28;20246;-86
2022/10/08 10:33:58;;;;;;;5.30;4.20;;;20.40;77.10;21.00;96887.00;;;;5059018;28;20317;-86
2022/10/08 10:36:39;;;;;;;5.10;3.87;;;20.40;77.10;21.00;96881.00;;;;5057736;28;20247;-85
2022/10/08 10:39:23;;;;;;;4.07;3.77;;;20.40;76.90;21.00;96892.00;;;;5055744;28;20248;-86
2022/10/08 10:42:06;;;;;;;5.70;4.23;;;20.40;76.70;21.10;96893.00;;;;5067157;28;20220;-85
2022/10/08 10:44:53;;;;;;;4.57;4.00;;;20.40;76.50;21.10;96894.00;;;;5052519;28;20227;-85
2022/10/08 10:47:23;;;;;;;4.43;3.70;;;20.50;76.50;21.10;96890.00;;;;5063026;28;20585;-86
2022/10/08 10:49:55;;;;;;;4.47;4.03;;;20.50;76.50;21.10;96895.00;;;;5070921;28;20290;-85
2022/10/08 10:52:53;;;;;;;4.87;4.00;;;20.60;76.40;21.10;96893.00;;;;5055796;28;20422;-86
2022/10/08 10:55:38;;;;;;;4.80;4.33;;;20.50;76.00;21.10;96895.00;;;;5069230;28;20191;-84
2022/10/08 10:58:36;;;;;;;5.80;4.20;;;20.60;76.20;21.10;96889.00;;;;5064577;28;20299;-84
2022/10/08 11:01:22;;;;;;;5.43;3.87;;;20.50;75.50;21.10;96883.00;;;;5053161;28;20299;-84
2022/10/08 11:04:09;;;;;;;4.73;4.20;;;20.60;76.10;21.10;96884.00;;;;5053673;28;20193;-83
2022/10/08 11:07:07;;;;;;;5.53;3.80;;;20.60;76.00;21.10;96886.00;;;;5053115;28;20646;-83
2022/10/08 11:09:52;;;;;;;5.30;4.30;;;20.60;75.80;21.20;96884.00;;;;5053591;28;20600;-83
2022/10/08 11:12:40;;;;;;;4.80;4.30;;;20.60;75.80;21.20;96893.00;;;;5068800;28;20260;-84
2022/10/08 11:15:31;;;;;;;7.17;4.20;;;20.60;75.80;21.20;96884.00;;;;5059963;28;20203;-84
2022/10/08 11:18:24;;;;;;;4.30;3.93;;;20.70;75.70;21.20;96888.00;;;;5053399;28;20236;-84
2022/10/08 11:21:13;;;;;;;5.20;3.83;;;20.70;75.80;21.20;96884.00;;;;5054357;28;20184;-84